Time;durP1;ratioP1;P1;durP2;ratioP2;P2;SDS_P1;SDS_P2;PMS_P1;PMS_P2;Temp;Humidity;BMP_temperature;BMP_pressure;BME280_temperature;BME280_humidity;BME280_pressure;Samples;Min_cycle;Max_cycle;Signal;HPM_P1;HPM_P2
2023/01/22 00:01:11;;;;;;;8.65;3.03;;;0.90;99.90;;;;;;5067962;28;20037;-80
2023/01/22 00:03:37;;;;;;;3.95;2.13;;;0.90;99.90;;;;;;5064534;28;20051;-80
2023/01/22 00:06:03;;;;;;;3.88;2.17;;;0.90;99.90;;;;;;5058309;28;20028;-80
2023/01/22 00:08:28;;;;;;;5.80;3.38;;;1.00;99.90;;;;;;5048161;28;20029;-80
2023/01/22 00:10:55;;;;;;;5.15;2.42;;;0.90;99.90;;;;;;5053884;28;20045;-80
2023/01/22 00:13:22;;;;;;;4.00;2.17;;;1.00;99.90;;;;;;5075130;28;20151;-80
2023/01/22 00:15:48;;;;;;;4.47;2.53;;;1.00;99.90;;;;;;5064683;28;20539;-80
2023/01/22 00:18:14;;;;;;;3.88;2.00;;;1.00;99.90;;;;;;5063969;28;20115;-80
2023/01/22 00:20:40;;;;;;;2.95;1.80;;;1.00;99.90;;;;;;5070280;28;20116;-80
2023/01/22 00:23:05;;;;;;;5.07;2.65;;;0.90;99.90;;;;;;5056134;28;20528;-80
2023/01/22 00:25:31;;;;;;;3.72;2.33;;;0.90;99.90;;;;;;5056150;28;20047;-80
2023/01/22 00:27:57;;;;;;;6.25;2.65;;;0.90;99.90;;;;;;5073268;28;20397;-80
2023/01/22 00:30:22;;;;;;;8.57;3.13;;;0.90;99.90;;;;;;5075757;28;20044;-80
2023/01/22 00:32:48;;;;;;;5.47;2.78;;;0.90;99.90;;;;;;5070485;28;20040;-80
2023/01/22 00:35:14;;;;;;;4.05;2.72;;;0.90;99.90;;;;;;5059180;28;20033;-80
2023/01/22 00:37:39;;;;;;;5.60;2.55;;;0.90;99.90;;;;;;5058779;28;20094;-80
2023/01/22 00:40:06;;;;;;;5.10;2.53;;;0.80;99.90;;;;;;5068038;28;20068;-80
2023/01/22 00:42:31;;;;;;;5.55;3.03;;;0.80;99.90;;;;;;5053857;28;20036;-80
2023/01/22 00:44:58;;;;;;;4.60;3.08;;;0.80;99.90;;;;;;5055394;28;20097;-80
2023/01/22 00:47:24;;;;;;;5.93;3.72;;;0.80;99.90;;;;;;5056088;28;20036;-80
2023/01/22 00:49:50;;;;;;;4.65;2.65;;;0.70;99.90;;;;;;5072278;28;20501;-80
2023/01/22 00:52:16;;;;;;;6.00;2.70;;;0.70;99.90;;;;;;5064632;28;20082;-80
2023/01/22 00:54:41;;;;;;;8.73;3.30;;;0.70;99.90;;;;;;5072881;28;20048;-79
2023/01/22 00:57:07;;;;;;;5.65;2.55;;;0.70;99.90;;;;;;5060031;28;20058;-80
2023/01/22 00:59:33;;;;;;;6.05;3.08;;;0.70;99.90;;;;;;5053426;28;20405;-79
2023/01/22 01:01:58;;;;;;;5.45;3.08;;;0.70;99.90;;;;;;5056022;28;20072;-80
2023/01/22 01:04:24;;;;;;;6.00;3.00;;;0.60;99.90;;;;;;5072410;28;20047;-80
2023/01/22 01:06:49;;;;;;;4.55;2.25;;;0.60;99.90;;;;;;5070547;28;20447;-80
2023/01/22 01:09:15;;;;;;;4.35;2.45;;;0.60;99.90;;;;;;5057135;28;20078;-80
2023/01/22 01:11:41;;;;;;;7.47;3.40;;;0.60;99.90;;;;;;5067974;28;20049;-80
2023/01/22 01:14:06;;;;;;;5.93;3.72;;;0.60;99.90;;;;;;5067973;28;20036;-80
2023/01/22 01:16:32;;;;;;;9.90;3.55;;;0.60;99.90;;;;;;5053394;28;20040;-80
2023/01/22 01:19:04;;;;;;;4.90;3.10;;;0.60;99.90;;;;;;5055850;28;20375;-80
2023/01/22 01:21:30;;;;;;;5.60;3.03;;;0.50;99.90;;;;;;5058753;28;20237;-80
2023/01/22 01:23:57;;;;;;;6.03;3.30;;;0.50;99.90;;;;;;5060459;28;20032;-80
2023/01/22 01:26:23;;;;;;;5.28;3.22;;;0.50;99.90;;;;;;5060479;28;20051;-80
2023/01/22 01:28:51;;;;;;;4.60;2.58;;;0.50;99.90;;;;;;5051330;28;20044;-80
2023/01/22 01:31:18;;;;;;;8.25;4.00;;;0.50;99.90;;;;;;5062219;28;20480;-80
2023/01/22 01:33:45;;;;;;;5.70;2.85;;;0.50;99.90;;;;;;5058940;28;20101;-80
2023/01/22 01:36:14;;;;;;;5.55;2.45;;;0.50;99.90;;;;;;5068817;28;20045;-80
2023/01/22 01:38:40;;;;;;;4.95;2.83;;;0.50;99.90;;;;;;5055623;28;20028;-80
2023/01/22 01:41:06;;;;;;;5.68;2.75;;;0.50;99.90;;;;;;5069404;28;20062;-80
2023/01/22 01:43:33;;;;;;;5.18;2.60;;;0.50;99.90;;;;;;5066666;28;20086;-80
2023/01/22 01:45:59;;;;;;;5.95;3.80;;;0.40;99.90;;;;;;5070762;28;20519;-80
2023/01/22 01:48:40;;;;;;;11.43;3.25;;;0.50;99.90;;;;;;5052984;28;20800;-80
2023/01/22 01:51:08;;;;;;;6.93;3.65;;;0.50;99.90;;;;;;5066947;28;20074;-80
2023/01/22 01:53:34;;;;;;;5.55;3.20;;;0.50;99.90;;;;;;5071258;28;20029;-80
2023/01/22 01:56:02;;;;;;;4.68;2.65;;;0.50;99.90;;;;;;5053401;28;20044;-80
2023/01/22 01:58:32;;;;;;;6.10;2.67;;;0.50;99.90;;;;;;5077541;28;20040;-80
2023/01/22 02:01:03;;;;;;;5.18;2.92;;;0.50;99.90;;;;;;5057015;28;20039;-80
2023/01/22 02:03:29;;;;;;;7.00;2.38;;;0.50;99.90;;;;;;5069416;28;20509;-80
2023/01/22 02:05:56;;;;;;;4.93;2.80;;;0.60;99.90;;;;;;5052147;28;20033;-80
2023/01/22 02:08:21;;;;;;;4.28;2.70;;;0.60;99.90;;;;;;5064453;28;20113;-80
2023/01/22 02:10:47;;;;;;;7.65;2.65;;;0.60;99.90;;;;;;5070468;28;20131;-80
2023/01/22 02:13:19;;;;;;;6.97;3.15;;;0.60;99.90;;;;;;5081160;28;20040;-80
2023/01/22 02:15:45;;;;;;;4.78;2.22;;;0.60;99.90;;;;;;5073515;28;20044;-80
2023/01/22 02:18:11;;;;;;;5.40;3.03;;;0.60;99.90;;;;;;5079716;28;20118;-80
2023/01/22 02:20:38;;;;;;;4.60;3.00;;;0.70;99.90;;;;;;5073018;28;20490;-80
2023/01/22 02:23:04;;;;;;;6.63;3.40;;;0.70;99.90;;;;;;5062952;28;20099;-80
2023/01/22 02:25:30;;;;;;;6.47;2.22;;;0.70;99.90;;;;;;5065499;28;20036;-80
2023/01/22 02:27:56;;;;;;;4.00;2.33;;;0.80;99.90;;;;;;5069488;28;20052;-80
2023/01/22 02:30:21;;;;;;;4.68;2.38;;;0.80;99.90;;;;;;5051581;28;20442;-80
2023/01/22 02:32:47;;;;;;;4.32;2.45;;;0.90;99.90;;;;;;5052511;28;20047;-80
2023/01/22 02:35:13;;;;;;;4.18;2.17;;;0.90;99.90;;;;;;5069357;28;20028;-80
2023/01/22 02:37:38;;;;;;;3.60;2.22;;;0.90;99.90;;;;;;5051598;28;20475;-80
2023/01/22 02:40:04;;;;;;;5.95;2.65;;;0.90;99.90;;;;;;5069401;28;20037;-80
2023/01/22 02:42:30;;;;;;;5.65;2.20;;;1.00;99.90;;;;;;5068845;28;20051;-80
2023/01/22 02:44:55;;;;;;;2.97;1.90;;;1.00;99.90;;;;;;5068279;28;20036;-80
2023/01/22 02:47:21;;;;;;;3.90;2.03;;;0.90;99.90;;;;;;5066185;28;20040;-80
2023/01/22 02:49:47;;;;;;;2.47;1.83;;;1.00;99.90;;;;;;5072692;28;20174;-80
2023/01/22 02:52:13;;;;;;;4.07;2.25;;;1.00;99.90;;;;;;5051915;28;20037;-80
2023/01/22 02:54:38;;;;;;;3.47;1.35;;;1.00;99.90;;;;;;5057753;28;20043;-80
2023/01/22 02:57:04;;;;;;;5.82;3.72;;;1.00;99.90;;;;;;5067776;28;20036;-80
2023/01/22 02:59:29;;;;;;;3.60;1.40;;;1.00;99.90;;;;;;5053407;28;20040;-80
2023/01/22 03:01:56;;;;;;;3.30;1.52;;;1.10;99.90;;;;;;5052111;28;20032;-80
2023/01/22 03:04:22;;;;;;;3.92;2.15;;;1.10;99.90;;;;;;5065252;28;20394;-80
2023/01/22 03:06:48;;;;;;;2.20;1.48;;;1.10;99.90;;;;;;5070284;28;20039;-80
2023/01/22 03:09:16;;;;;;;1.98;1.08;;;1.10;99.90;;;;;;5049770;28;20033;-80
2023/01/22 03:11:43;;;;;;;2.70;1.55;;;1.10;99.90;;;;;;5070599;28;20171;-80
2023/01/22 03:22:22;;;;;;;8.95;1.83;;;1.10;99.90;;;;;;5072614;28;20044;-80
2023/01/22 03:24:50;;;;;;;3.13;2.00;;;1.10;99.90;;;;;;5072164;28;20555;-80
2023/01/22 03:27:17;;;;;;;2.95;1.85;;;1.10;99.90;;;;;;5065358;28;20505;-80
2023/01/22 03:29:43;;;;;;;3.08;1.92;;;1.10;99.90;;;;;;5066707;28;20032;-80
2023/01/22 03:32:09;;;;;;;2.58;1.55;;;1.20;99.90;;;;;;5067585;28;20512;-80
2023/01/22 03:34:35;;;;;;;3.58;1.88;;;1.20;99.90;;;;;;5051313;28;20028;-80
2023/01/22 03:37:00;;;;;;;3.08;1.52;;;1.20;99.90;;;;;;5057009;28;20044;-80
2023/01/22 03:39:27;;;;;;;3.75;1.88;;;1.20;99.90;;;;;;5068758;28;20032;-80
2023/01/22 03:41:52;;;;;;;3.53;1.27;;;1.20;99.90;;;;;;5050531;28;20478;-80
2023/01/22 03:44:18;;;;;;;2.45;1.80;;;1.20;99.90;;;;;;5065331;28;20090;-80
2023/01/22 03:46:44;;;;;;;5.20;2.15;;;1.20;99.90;;;;;;5063039;28;20083;-80
2023/01/22 03:49:12;;;;;;;2.60;1.77;;;1.20;99.90;;;;;;5068113;28;20033;-80
2023/01/22 03:51:37;;;;;;;2.95;1.70;;;1.20;99.90;;;;;;5068011;28;20485;-81
2023/01/22 03:54:03;;;;;;;2.88;1.35;;;1.20;99.90;;;;;;5073075;28;20160;-80
2023/01/22 03:56:30;;;;;;;3.22;1.63;;;1.20;99.90;;;;;;5055955;28;20417;-80
2023/01/22 03:58:55;;;;;;;4.28;2.35;;;1.20;99.90;;;;;;5071603;28;20040;-80
2023/01/22 04:01:23;;;;;;;6.57;1.65;;;1.20;99.90;;;;;;5070616;28;20046;-80
2023/01/22 04:03:49;;;;;;;1.60;1.02;;;1.20;99.90;;;;;;5068943;28;20040;-80
2023/01/22 04:06:16;;;;;;;2.70;1.52;;;1.20;99.90;;;;;;5072313;28;20048;-80
2023/01/22 04:08:43;;;;;;;6.68;1.80;;;1.20;99.90;;;;;;5057263;28;20044;-81
2023/01/22 04:11:10;;;;;;;2.60;1.65;;;1.20;99.90;;;;;;5068692;28;20048;-80
2023/01/22 04:13:38;;;;;;;1.75;1.10;;;1.20;99.90;;;;;;5058895;28;20050;-80
2023/01/22 04:16:04;;;;;;;1.60;1.15;;;1.20;99.90;;;;;;5069586;28;20086;-80
2023/01/22 04:18:29;;;;;;;3.42;1.45;;;1.20;99.90;;;;;;5057623;28;20028;-80
2023/01/22 04:20:56;;;;;;;2.80;1.77;;;1.20;99.90;;;;;;5076861;28;20600;-81
2023/01/22 04:23:22;;;;;;;2.45;1.15;;;1.20;99.90;;;;;;5073240;28;20512;-80
2023/01/22 04:25:48;;;;;;;2.28;1.55;;;1.20;99.90;;;;;;5054105;28;20047;-80
2023/01/22 04:28:15;;;;;;;2.53;1.20;;;1.20;99.90;;;;;;5063056;28;20111;-80
2023/01/22 04:30:46;;;;;;;2.85;1.52;;;1.20;99.90;;;;;;5068315;28;20043;-80
2023/01/22 04:33:12;;;;;;;4.00;1.27;;;1.20;99.90;;;;;;5070948;28;20115;-80
2023/01/22 04:35:38;;;;;;;3.35;1.25;;;1.20;99.90;;;;;;5074251;28;20047;-80
2023/01/22 04:38:05;;;;;;;2.80;1.50;;;1.30;99.90;;;;;;5072888;28;20036;-79
2023/01/22 04:40:32;;;;;;;2.38;1.40;;;1.20;99.90;;;;;;5068448;28;20059;-81
2023/01/22 04:43:05;;;;;;;3.78;1.83;;;1.20;99.90;;;;;;5056489;28;20043;-80
2023/01/22 04:45:31;;;;;;;3.15;1.33;;;1.20;99.90;;;;;;5070967;28;20047;-80
2023/01/22 04:47:57;;;;;;;2.50;1.25;;;1.20;99.90;;;;;;5050641;28;20044;-80
2023/01/22 04:50:26;;;;;;;1.90;1.17;;;1.20;99.90;;;;;;5073377;28;20490;-80
2023/01/22 04:52:53;;;;;;;2.47;1.48;;;1.20;99.90;;;;;;5070548;28;20044;-80
2023/01/22 04:55:20;;;;;;;2.50;1.50;;;1.20;99.90;;;;;;5070922;28;20048;-80
2023/01/22 04:57:45;;;;;;;2.58;1.42;;;1.20;99.90;;;;;;5069445;28;20432;-80
2023/01/22 05:00:12;;;;;;;3.47;1.27;;;1.20;99.90;;;;;;5052844;28;20114;-80
2023/01/22 05:02:38;;;;;;;2.45;1.67;;;1.20;99.90;;;;;;5066983;28;20086;-80
2023/01/22 05:05:05;;;;;;;2.60;1.42;;;1.20;99.90;;;;;;5055296;28;20036;-80
2023/01/22 05:07:30;;;;;;;3.72;1.27;;;1.20;99.90;;;;;;5065575;28;20032;-80
2023/01/22 05:09:56;;;;;;;2.10;0.98;;;1.20;99.90;;;;;;5070740;28;20051;-80
2023/01/22 05:12:21;;;;;;;2.47;1.42;;;1.20;99.90;;;;;;5071918;28;20044;-80
2023/01/22 05:14:47;;;;;;;3.53;1.33;;;1.20;99.90;;;;;;5070427;28;20122;-80
2023/01/22 05:17:13;;;;;;;1.80;0.93;;;1.10;99.90;;;;;;5068791;28;20064;-80
2023/01/22 05:19:38;;;;;;;2.42;1.27;;;1.10;99.90;;;;;;5070707;28;20450;-80
2023/01/22 05:22:04;;;;;;;1.45;1.02;;;1.20;99.90;;;;;;5070512;28;20039;-80
2023/01/22 05:24:30;;;;;;;2.33;1.13;;;1.20;99.90;;;;;;5075284;28;20040;-80
2023/01/22 05:26:55;;;;;;;1.45;0.93;;;1.10;99.90;;;;;;5055272;28;20177;-80
2023/01/22 05:29:25;;;;;;;2.35;1.63;;;1.20;99.90;;;;;;5068933;28;20063;-79
2023/01/22 05:31:52;;;;;;;3.75;1.95;;;1.20;99.90;;;;;;5069903;28;20532;-80
2023/01/22 05:34:18;;;;;;;2.95;1.17;;;1.20;99.90;;;;;;5058511;28;20040;-80
2023/01/22 05:36:44;;;;;;;2.65;1.60;;;1.10;99.90;;;;;;5054021;28;20059;-80
2023/01/22 05:39:09;;;;;;;2.40;1.30;;;1.20;99.90;;;;;;5052335;28;20510;-80
2023/01/22 05:41:35;;;;;;;1.65;1.00;;;1.10;99.90;;;;;;5071512;28;20617;-80
2023/01/22 05:44:02;;;;;;;3.45;1.98;;;1.10;99.90;;;;;;5070054;28;20044;-79
2023/01/22 05:46:28;;;;;;;3.67;1.98;;;1.10;99.90;;;;;;5070924;28;20048;-80
2023/01/22 05:48:54;;;;;;;4.03;2.03;;;1.10;99.90;;;;;;5058832;28;20113;-80
2023/01/22 05:51:20;;;;;;;3.03;1.92;;;1.10;99.90;;;;;;5067371;28;20040;-79
2023/01/22 05:53:45;;;;;;;2.70;1.70;;;1.10;99.90;;;;;;5059417;28;20644;-80
2023/01/22 05:56:11;;;;;;;3.28;1.67;;;1.10;99.90;;;;;;5069416;28;20036;-80
2023/01/22 05:58:37;;;;;;;2.85;1.60;;;1.10;99.90;;;;;;5075312;28;20081;-80
2023/01/22 06:01:03;;;;;;;5.05;2.33;;;1.00;99.90;;;;;;5087732;28;20516;-80
2023/01/22 06:03:28;;;;;;;3.38;2.08;;;1.00;99.90;;;;;;5065042;28;20032;-80
2023/01/22 06:05:58;;;;;;;2.70;1.38;;;1.00;99.90;;;;;;5078272;28;20040;-80
2023/01/22 06:08:24;;;;;;;3.75;1.83;;;1.00;99.90;;;;;;5086732;28;20622;-80
2023/01/22 06:10:50;;;;;;;2.25;1.35;;;1.00;99.90;;;;;;5068645;28;20087;-80
2023/01/22 06:13:15;;;;;;;2.45;1.45;;;1.00;99.90;;;;;;5069267;28;20052;-80
2023/01/22 06:15:42;;;;;;;3.63;1.80;;;1.00;99.90;;;;;;5068901;28;20402;-80
2023/01/22 06:18:09;;;;;;;2.20;1.30;;;0.90;99.90;;;;;;5075674;28;20032;-80
2023/01/22 06:20:35;;;;;;;3.78;1.98;;;1.00;99.90;;;;;;5064536;28;20036;-80
2023/01/22 06:23:01;;;;;;;4.65;1.45;;;1.00;99.90;;;;;;5087211;28;20127;-80
2023/01/22 06:25:26;;;;;;;1.77;1.35;;;0.90;99.90;;;;;;5075446;28;20124;-80
2023/01/22 06:27:52;;;;;;;2.80;1.70;;;1.00;99.90;;;;;;5052485;28;20051;-79
2023/01/22 06:30:17;;;;;;;2.63;1.17;;;0.90;99.90;;;;;;5069546;28;20036;-79
2023/01/22 06:32:43;;;;;;;2.33;1.38;;;0.90;99.90;;;;;;5068869;28;20032;-80
2023/01/22 06:35:09;;;;;;;2.25;1.08;;;0.90;99.90;;;;;;5069455;28;20040;-80
2023/01/22 06:37:34;;;;;;;3.63;1.10;;;1.00;99.90;;;;;;5052228;28;20044;-80
2023/01/22 06:40:00;;;;;;;3.20;1.20;;;0.90;99.90;;;;;;5051076;28;20048;-80
2023/01/22 06:42:25;;;;;;;4.22;1.63;;;1.00;99.90;;;;;;5070570;28;20084;-80
2023/01/22 06:44:51;;;;;;;1.77;1.05;;;1.00;99.90;;;;;;5066198;28;20036;-80
2023/01/22 06:47:17;;;;;;;2.83;1.40;;;0.90;99.90;;;;;;5072437;28;20043;-80
2023/01/22 06:49:42;;;;;;;1.40;0.82;;;1.00;99.90;;;;;;5075536;28;20051;-80
2023/01/22 06:52:08;;;;;;;3.00;1.40;;;1.00;99.90;;;;;;5101096;28;20340;-80
2023/01/22 06:54:34;;;;;;;4.35;1.48;;;0.90;99.90;;;;;;5088313;28;20090;-80
2023/01/22 06:56:59;;;;;;;1.88;1.42;;;1.00;99.90;;;;;;5092625;28;20242;-80
2023/01/22 06:59:25;;;;;;;1.80;1.42;;;1.00;99.90;;;;;;5068411;28;20405;-80
2023/01/22 07:01:51;;;;;;;2.75;1.20;;;1.00;99.90;;;;;;5088840;28;20039;-80
2023/01/22 07:04:16;;;;;;;2.58;1.75;;;0.90;99.90;;;;;;5081568;28;20443;-80
2023/01/22 07:06:42;;;;;;;2.47;1.33;;;0.90;99.90;;;;;;5062154;28;20044;-80
2023/01/22 07:09:08;;;;;;;2.15;1.42;;;1.00;99.90;;;;;;5073682;28;20040;-80
2023/01/22 07:11:33;;;;;;;2.13;1.08;;;1.00;99.90;;;;;;5082742;28;20049;-79
2023/01/22 07:13:59;;;;;;;5.05;1.70;;;0.90;99.90;;;;;;5054350;28;20044;-80
2023/01/22 07:16:24;;;;;;;2.33;1.30;;;1.00;99.90;;;;;;5082567;28;20027;-80
2023/01/22 07:18:50;;;;;;;2.25;1.50;;;0.90;99.90;;;;;;5073892;28;20028;-80
2023/01/22 07:21:15;;;;;;;2.33;1.50;;;0.90;99.90;;;;;;5083785;28;20485;-80
2023/01/22 07:23:41;;;;;;;2.42;1.33;;;0.90;99.90;;;;;;5065252;28;20027;-80
2023/01/22 07:26:07;;;;;;;3.58;2.63;;;0.90;99.90;;;;;;5078905;28;20448;-80
2023/01/22 07:28:32;;;;;;;9.35;2.08;;;1.00;99.90;;;;;;5081180;28;20135;-80
2023/01/22 07:30:58;;;;;;;4.50;1.58;;;0.90;99.90;;;;;;5075820;28;20068;-80
2023/01/22 07:33:24;;;;;;;2.40;1.00;;;0.90;99.90;;;;;;5068034;28;20033;-80
2023/01/22 07:35:54;;;;;;;1.92;1.30;;;0.90;99.90;;;;;;5051022;28;20411;-80
2023/01/22 07:38:20;;;;;;;2.38;1.33;;;0.90;99.90;;;;;;5063639;28;20036;-80
2023/01/22 07:40:46;;;;;;;2.97;1.80;;;0.90;99.90;;;;;;5080015;28;20032;-80
2023/01/22 07:43:13;;;;;;;2.80;1.75;;;0.90;99.90;;;;;;5087995;28;20652;-80
2023/01/22 07:45:39;;;;;;;2.03;1.58;;;0.90;99.90;;;;;;5082917;28;20044;-80
2023/01/22 07:48:09;;;;;;;1.88;1.33;;;1.00;99.90;;;;;;5079051;28;20400;-80
2023/01/22 07:50:36;;;;;;;3.10;1.92;;;0.90;99.90;;;;;;5070309;28;20043;-80
2023/01/22 07:53:02;;;;;;;2.28;1.52;;;1.00;99.90;;;;;;5078397;28;20059;-80
2023/01/22 07:55:30;;;;;;;2.40;1.10;;;0.90;99.90;;;;;;5065771;28;20032;-82
2023/01/22 07:58:02;;;;;;;3.65;1.88;;;0.90;99.90;;;;;;5059386;28;20079;-80
2023/01/22 08:00:28;;;;;;;2.72;1.35;;;0.90;99.90;;;;;;5059372;28;20048;-79
2023/01/22 08:02:54;;;;;;;3.38;1.95;;;0.90;99.90;;;;;;5079918;28;20052;-80
2023/01/22 08:05:19;;;;;;;7.75;1.75;;;0.90;99.90;;;;;;5058893;28;20050;-80
2023/01/22 08:07:45;;;;;;;2.42;1.08;;;0.90;99.90;;;;;;5054506;28;20048;-79
2023/01/22 08:10:13;;;;;;;2.78;1.60;;;1.00;99.90;;;;;;5060099;28;20052;-80
2023/01/22 08:12:40;;;;;;;2.22;1.05;;;1.00;99.90;;;;;;5072955;28;20036;-80
2023/01/22 08:15:07;;;;;;;4.13;1.60;;;1.00;99.90;;;;;;5067696;28;20390;-80
2023/01/22 08:17:33;;;;;;;2.25;1.45;;;1.00;99.90;;;;;;5061588;28;20454;-80
2023/01/22 08:19:58;;;;;;;1.67;1.05;;;1.00;99.90;;;;;;5074374;28;20532;-80
2023/01/22 08:22:24;;;;;;;3.63;1.70;;;1.00;99.90;;;;;;5060674;28;20130;-80
2023/01/22 08:24:50;;;;;;;2.67;1.98;;;1.00;99.90;;;;;;5071518;28;20079;-80
2023/01/22 08:27:16;;;;;;;3.45;1.83;;;0.90;99.90;;;;;;5079927;28;20032;-80
2023/01/22 08:29:42;;;;;;;3.53;2.30;;;1.00;99.90;;;;;;5074577;28;20036;-79
2023/01/22 08:32:07;;;;;;;4.25;2.53;;;1.00;99.90;;;;;;5070380;28;20559;-80
2023/01/22 08:34:33;;;;;;;4.10;1.80;;;1.00;99.90;;;;;;5069475;28;20059;-80
2023/01/22 08:36:58;;;;;;;3.42;1.85;;;1.00;99.90;;;;;;5056475;28;20131;-80
2023/01/22 08:39:24;;;;;;;3.35;1.90;;;1.00;99.90;;;;;;5061398;28;20078;-80
2023/01/22 08:41:51;;;;;;;2.95;1.40;;;1.00;99.90;;;;;;5060824;28;20040;-80
2023/01/22 08:44:16;;;;;;;3.00;1.42;;;1.00;99.90;;;;;;5080194;28;20044;-80
2023/01/22 08:46:42;;;;;;;4.75;1.95;;;1.00;99.90;;;;;;5076334;28;20050;-79
2023/01/22 08:49:08;;;;;;;2.42;1.48;;;1.00;99.90;;;;;;5078117;28;20481;-80
2023/01/22 08:51:34;;;;;;;2.35;1.05;;;1.00;99.90;;;;;;5059703;28;20032;-81
2023/01/22 08:53:59;;;;;;;3.78;2.65;;;1.00;99.90;;;;;;5058347;28;20124;-80
2023/01/22 08:56:25;;;;;;;2.53;1.23;;;1.00;99.90;;;;;;5055667;28;20461;-80
2023/01/22 08:58:51;;;;;;;2.80;1.45;;;1.00;99.90;;;;;;5072366;28;20039;-80
2023/01/22 09:01:18;;;;;;;2.97;1.65;;;1.00;99.90;;;;;;5056243;28;20520;-80
2023/01/22 09:03:44;;;;;;;3.40;1.83;;;1.00;99.90;;;;;;5051938;28;20414;-80
2023/01/22 09:06:11;;;;;;;2.22;1.25;;;1.10;99.90;;;;;;5079111;28;20058;-80
2023/01/22 09:08:36;;;;;;;3.22;1.65;;;1.10;99.90;;;;;;5089060;28;20036;-80
2023/01/22 09:11:04;;;;;;;2.00;1.50;;;1.10;99.90;;;;;;5058412;28;20387;-80
2023/01/22 09:13:30;;;;;;;1.85;0.98;;;1.10;99.90;;;;;;5062766;28;20028;-80
2023/01/22 09:15:56;;;;;;;3.50;2.00;;;1.10;99.90;;;;;;5073324;28;20105;-80
2023/01/22 09:18:22;;;;;;;2.83;1.75;;;1.10;99.90;;;;;;5058094;28;20043;-80
2023/01/22 09:20:47;;;;;;;3.10;1.90;;;1.10;99.90;;;;;;5080207;28;20323;-81
2023/01/22 09:23:13;;;;;;;1.83;1.08;;;1.20;99.90;;;;;;5069747;28;20281;-80
2023/01/22 09:25:39;;;;;;;2.22;1.63;;;1.20;99.90;;;;;;5060028;28;20039;-80
2023/01/22 09:28:07;;;;;;;3.33;1.92;;;1.20;99.90;;;;;;5094023;28;20035;-80
2023/01/22 09:30:34;;;;;;;2.75;1.67;;;1.20;99.90;;;;;;5079559;28;20087;-78
2023/01/22 09:33:00;;;;;;;4.45;2.30;;;1.20;99.90;;;;;;5071579;28;20051;-88
2023/01/22 09:35:26;;;;;;;4.13;1.75;;;1.30;99.90;;;;;;5099467;28;20029;-80
2023/01/22 09:37:53;;;;;;;5.70;1.77;;;1.30;99.90;;;;;;5069870;28;20040;-80
2023/01/22 09:40:29;;;;;;;1.83;1.48;;;1.30;99.90;;;;;;5087512;28;20254;-79
2023/01/22 09:43:15;;;;;;;3.13;1.50;;;1.30;99.90;;;;;;5065713;28;20413;-80
2023/01/22 09:45:41;;;;;;;2.47;1.65;;;1.30;99.90;;;;;;5084940;28;20460;-80
2023/01/22 09:48:13;;;;;;;2.45;1.33;;;1.30;99.90;;;;;;5082199;28;20397;-80
2023/01/22 09:50:39;;;;;;;2.60;1.60;;;1.40;99.90;;;;;;5085333;28;20048;-80
2023/01/22 09:53:11;;;;;;;3.00;1.60;;;1.30;99.90;;;;;;5073047;28;20436;-80
2023/01/22 09:55:43;;;;;;;3.20;1.58;;;1.30;99.90;;;;;;5067332;28;20068;-80
2023/01/22 09:58:14;;;;;;;4.00;1.95;;;1.30;99.90;;;;;;5075854;28;20109;-80
2023/01/22 10:00:50;;;;;;;3.53;1.70;;;1.30;99.90;;;;;;5088945;28;20526;-79
2023/01/22 10:03:31;;;;;;;3.95;2.30;;;1.40;99.90;;;;;;5091043;28;20521;-80
2023/01/22 10:06:09;;;;;;;2.75;1.60;;;1.30;99.90;;;;;;5080530;28;20432;-80
2023/01/22 10:09:00;;;;;;;3.80;2.15;;;1.40;99.90;;;;;;5067014;28;20398;-80
2023/01/22 10:11:26;;;;;;;5.25;2.28;;;1.40;99.90;;;;;;5052075;28;20052;-80
2023/01/22 10:13:57;;;;;;;4.82;1.73;;;1.40;99.90;;;;;;5052417;28;20044;-80
2023/01/22 10:16:23;;;;;;;3.83;1.95;;;1.40;99.90;;;;;;5068603;28;20118;-80
2023/01/22 10:19:04;;;;;;;2.50;1.60;;;1.40;99.90;;;;;;5086478;28;20035;-80
2023/01/22 10:21:33;;;;;;;3.20;2.22;;;1.40;99.90;;;;;;5069139;28;20052;-79
2023/01/22 10:23:59;;;;;;;4.20;2.33;;;1.40;99.90;;;;;;5066255;28;20410;-79
2023/01/22 10:26:47;;;;;;;3.72;2.08;;;1.40;99.90;;;;;;5063976;28;20040;-79
2023/01/22 10:29:21;;;;;;;3.35;1.90;;;1.50;99.90;;;;;;5066461;28;20063;-80
2023/01/22 10:31:51;;;;;;;3.97;2.15;;;1.50;99.90;;;;;;5088529;27;20456;-79
2023/01/22 10:34:30;;;;;;;4.28;2.22;;;1.40;99.90;;;;;;5051178;28;20034;-79
2023/01/22 10:37:00;;;;;;;2.92;1.95;;;1.40;99.90;;;;;;5074814;28;20516;-79
2023/01/22 10:39:26;;;;;;;3.65;1.92;;;1.50;99.90;;;;;;5062720;28;20544;-79
2023/01/22 10:42:00;;;;;;;2.95;1.67;;;1.40;99.90;;;;;;5079628;28;20048;-79
2023/01/22 10:44:26;;;;;;;3.30;1.73;;;1.40;99.90;;;;;;5073132;28;20040;-79
2023/01/22 10:46:53;;;;;;;3.38;2.05;;;1.50;99.90;;;;;;5071301;28;20093;-78
2023/01/22 10:49:25;;;;;;;3.42;2.25;;;1.50;99.90;;;;;;5078171;28;20040;-79
2023/01/22 10:51:52;;;;;;;3.53;2.25;;;1.50;99.90;;;;;;5055969;28;20040;-78
2023/01/22 10:54:20;;;;;;;2.60;1.95;;;1.50;99.90;;;;;;5069337;28;20135;-79
2023/01/22 10:56:47;;;;;;;3.17;1.83;;;1.50;99.90;;;;;;5058560;28;20036;-79
2023/01/22 10:59:25;;;;;;;3.53;1.83;;;1.60;99.90;;;;;;5074901;28;20068;-78
2023/01/22 11:01:57;;;;;;;2.67;1.42;;;1.60;99.90;;;;;;5077655;28;20493;-78
2023/01/22 11:04:29;;;;;;;3.30;2.08;;;1.60;99.90;;;;;;5056534;28;20032;-78
2023/01/22 11:07:17;;;;;;;5.00;2.22;;;1.60;99.90;;;;;;5081480;28;20478;-78
2023/01/22 11:09:58;;;;;;;4.90;2.95;;;1.60;99.90;;;;;;5073372;28;20071;-78
2023/01/22 11:12:40;;;;;;;2.10;1.40;;;1.60;99.90;;;;;;5076787;28;20165;-78
2023/01/22 11:15:16;;;;;;;3.08;2.10;;;1.60;99.90;;;;;;5066606;28;20397;-78
2023/01/22 11:17:49;;;;;;;3.20;1.95;;;1.70;99.90;;;;;;5072163;28;20170;-78
2023/01/22 11:20:47;;;;;;;4.47;2.85;;;1.70;99.90;;;;;;5056215;28;20036;-78
2023/01/22 11:23:45;;;;;;;3.67;2.15;;;1.70;99.90;;;;;;5058495;28;20119;-79
2023/01/22 11:26:40;;;;;;;3.65;2.25;;;1.70;99.90;;;;;;5072416;28;20036;-78
2023/01/22 11:29:29;;;;;;;5.00;2.60;;;1.70;99.90;;;;;;5092925;28;20040;-78
2023/01/22 11:31:58;;;;;;;2.88;1.90;;;1.70;99.90;;;;;;5075303;28;20032;-78
2023/01/22 11:34:42;;;;;;;2.05;1.63;;;1.80;99.90;;;;;;5071150;28;20071;-78
2023/01/22 11:37:14;;;;;;;2.80;1.70;;;1.70;99.90;;;;;;5054032;28;20029;-78
2023/01/22 11:40:12;;;;;;;3.47;2.17;;;1.80;99.90;;;;;;5059718;28;20040;-77
2023/01/22 11:42:42;;;;;;;3.15;1.42;;;1.80;99.90;;;;;;5052789;28;20028;-78
2023/01/22 11:45:29;;;;;;;2.92;2.40;;;1.80;99.90;;;;;;5073585;28;20033;-78
2023/01/22 11:48:17;;;;;;;3.63;1.98;;;1.80;99.90;;;;;;5068566;28;20028;-78
2023/01/22 11:50:54;;;;;;;6.15;2.25;;;1.80;99.90;;;;;;5059754;28;20032;-78
2023/01/22 11:53:36;;;;;;;4.25;1.98;;;1.80;99.90;;;;;;5075187;28;20051;-78
2023/01/22 11:56:19;;;;;;;3.63;2.00;;;1.80;99.90;;;;;;5072958;28;20051;-77
2023/01/22 11:58:58;;;;;;;2.65;1.83;;;1.80;99.90;;;;;;5072877;28;20506;-77
2023/01/22 12:01:46;;;;;;;3.08;2.05;;;1.80;99.90;;;;;;5084363;28;20080;-77
2023/01/22 12:04:51;;;;;;;3.00;2.08;;;1.90;99.90;;;;;;5072691;28;20043;-77
2023/01/22 12:07:19;;;;;;;6.88;1.77;;;1.80;99.90;;;;;;5054312;28;20550;-81
2023/01/22 12:10:08;;;;;;;4.70;2.72;;;1.90;99.90;;;;;;5057694;28;20040;-77
2023/01/22 12:13:03;;;;;;;5.70;2.47;;;1.90;99.90;;;;;;5072478;28;20067;-77
2023/01/22 12:15:35;;;;;;;2.33;1.77;;;1.90;99.90;;;;;;5075118;28;20040;-77
2023/01/22 12:18:19;;;;;;;5.80;2.70;;;1.90;99.90;;;;;;5061844;28;20037;-78
2023/01/22 12:21:26;;;;;;;5.15;2.33;;;2.00;99.90;;;;;;5053900;28;20044;-78
2023/01/22 12:23:55;;;;;;;;;;;1.90;99.90;;;;;;5055573;28;20041;-77
2023/01/22 12:26:35;;;;;;;3.03;1.83;;;1.90;99.90;;;;;;5087448;28;19923;-77
2023/01/22 12:29:04;;;;;;;4.47;2.20;;;1.90;99.90;;;;;;5072761;28;20505;-77
2023/01/22 12:31:36;;;;;;;2.85;2.38;;;2.00;99.90;;;;;;5072998;28;20044;-77
2023/01/22 12:34:09;;;;;;;3.40;1.70;;;2.00;99.90;;;;;;5075451;28;20035;-77
2023/01/22 12:36:35;;;;;;;4.25;2.13;;;2.00;99.90;;;;;;5072780;28;20064;-77
2023/01/22 12:39:29;;;;;;;7.30;2.30;;;2.00;99.90;;;;;;5071856;28;20136;-77
2023/01/22 12:42:12;;;;;;;4.55;2.38;;;2.00;99.90;;;;;;5061482;28;20098;-78
2023/01/22 12:45:01;;;;;;;10.40;1.88;;;2.00;99.90;;;;;;5083518;28;20127;-78
2023/01/22 12:47:37;;;;;;;2.95;1.95;;;2.00;99.90;;;;;;5052988;28;20044;-78
2023/01/22 12:50:14;;;;;;;3.90;2.25;;;2.00;99.90;;;;;;5075850;28;20551;-77
2023/01/22 12:52:39;;;;;;;3.90;1.98;;;2.00;99.90;;;;;;5075392;28;20088;-77
2023/01/22 12:55:36;;;;;;;2.90;1.83;;;2.00;99.90;;;;;;5065907;28;20731;-77
2023/01/22 12:58:02;;;;;;;4.55;2.20;;;2.00;99.90;;;;;;5069027;28;20043;-78
2023/01/22 13:00:37;;;;;;;5.95;2.08;;;2.00;99.90;;;;;;5071406;28;20517;-77
2023/01/22 13:03:28;;;;;;;2.90;2.05;;;2.00;99.90;;;;;;5088171;28;20040;-78
2023/01/22 13:05:54;;;;;;;2.67;1.77;;;2.00;99.90;;;;;;5055142;28;20048;-77
2023/01/22 13:08:41;;;;;;;3.42;2.28;;;2.00;99.90;;;;;;5062820;28;20045;-76
2023/01/22 13:11:13;;;;;;;2.65;1.52;;;2.10;99.90;;;;;;5068911;28;20131;-78
2023/01/22 13:13:55;;;;;;;4.13;2.17;;;2.00;99.90;;;;;;5074612;28;20039;-77
2023/01/22 13:16:26;;;;;;;4.00;2.15;;;2.00;99.90;;;;;;5063000;28;20039;-77